createdAt,value
2023-05-19T00:00:56.770Z,1.92
2023-05-19T00:04:02.728Z,2.23
2023-05-19T00:07:08.388Z,1.33
2023-05-19T00:10:11.496Z,1.95
2023-05-19T00:13:13.999Z,1.90
2023-05-19T00:16:16.839Z,2.08
2023-05-19T00:19:19.270Z,1.80
2023-05-19T00:22:21.639Z,1.98
2023-05-19T00:25:24.010Z,1.83
2023-05-19T00:28:26.300Z,1.80
2023-05-19T00:31:28.739Z,2.30
2023-05-19T00:34:31.056Z,1.70
2023-05-19T00:37:33.319Z,1.70
2023-05-19T00:40:39.035Z,1.52
2023-05-19T00:43:41.340Z,2.63
2023-05-19T00:46:43.814Z,2.50
2023-05-19T00:49:46.126Z,2.13
2023-05-19T00:52:48.451Z,2.53
2023-05-19T00:55:50.841Z,1.90
2023-05-19T00:58:53.941Z,2.97
2023-05-19T01:01:56.250Z,2.20
2023-05-19T01:04:59.199Z,2.37
2023-05-19T01:08:01.945Z,2.10
2023-05-19T01:11:05.342Z,2.08
2023-05-19T01:14:07.741Z,2.38
2023-05-19T01:17:16.357Z,2.88
2023-05-19T01:20:39.313Z,2.90
2023-05-19T01:24:14.602Z,1.92
2023-05-19T01:27:42.843Z,2.33
2023-05-19T01:30:47.778Z,2.22
2023-05-19T01:33:58.119Z,2.78
2023-05-19T01:37:08.654Z,1.77
2023-05-19T01:40:11.478Z,2.20
2023-05-19T01:43:17.972Z,2.55
2023-05-19T01:46:21.500Z,2.35
2023-05-19T01:49:23.797Z,2.42
2023-05-19T01:52:26.090Z,2.37
2023-05-19T01:55:28.490Z,1.92
2023-05-19T01:58:33.772Z,2.17
2023-05-19T02:01:53.028Z,1.63
2023-05-19T02:05:03.793Z,2.72
2023-05-19T02:08:18.300Z,2.83
2023-05-19T02:11:31.554Z,2.83
2023-05-19T02:14:41.735Z,2.95
2023-05-19T02:17:50.792Z,3.38
2023-05-19T02:20:53.331Z,2.70
2023-05-19T02:23:55.732Z,2.87
2023-05-19T02:26:58.014Z,2.50
2023-05-19T02:30:00.326Z,2.40
2023-05-19T02:33:02.771Z,3.13
2023-05-19T02:36:06.463Z,3.03
2023-05-19T02:39:11.040Z,2.40
2023-05-19T02:42:14.845Z,2.85
2023-05-19T02:45:17.148Z,2.17
2023-05-19T02:48:19.389Z,1.98
2023-05-19T02:51:22.367Z,2.30
2023-05-19T02:54:24.724Z,2.13
2023-05-19T02:57:27.074Z,2.80
2023-05-19T03:00:29.336Z,2.40
2023-05-19T03:03:31.985Z,2.00
2023-05-19T03:06:34.430Z,2.05
2023-05-19T03:09:37.950Z,2.50
2023-05-19T03:12:40.650Z,2.45
2023-05-19T03:15:43.221Z,1.90
2023-05-19T03:18:46.342Z,2.10
2023-05-19T03:21:49.724Z,2.35
2023-05-19T03:24:58.752Z,2.30
2023-05-19T03:28:01.776Z,1.60
2023-05-19T03:31:04.112Z,1.95
2023-05-19T03:34:11.814Z,2.25
2023-05-19T03:37:14.308Z,2.40
2023-05-19T03:40:18.915Z,1.83
2023-05-19T03:43:21.617Z,2.13
2023-05-19T03:46:29.608Z,1.67
2023-05-19T03:49:43.751Z,1.90
2023-05-19T03:53:15.321Z,2.35
2023-05-19T03:56:18.357Z,1.57
2023-05-19T03:59:20.656Z,2.17
2023-05-19T04:02:23.031Z,1.88
2023-05-19T04:05:25.365Z,1.77
2023-05-19T04:08:29.319Z,1.83
2023-05-19T04:11:31.894Z,2.13
2023-05-19T04:14:34.203Z,1.83
2023-05-19T04:17:36.574Z,2.25
2023-05-19T04:20:38.873Z,2.10
2023-05-19T04:23:41.714Z,1.80
2023-05-19T04:26:46.232Z,1.50
2023-05-19T04:29:50.309Z,1.58
2023-05-19T04:32:52.663Z,1.45
2023-05-19T04:35:55.671Z,1.42
2023-05-19T04:39:02.547Z,1.65
2023-05-19T04:42:06.274Z,1.40
2023-05-19T04:45:09.878Z,1.80
2023-05-19T04:48:15.462Z,1.73
2023-05-19T04:51:17.787Z,1.75
2023-05-19T04:54:20.545Z,2.13
2023-05-19T04:57:23.039Z,1.23
2023-05-19T05:00:25.621Z,2.28
2023-05-19T05:03:34.632Z,1.60
2023-05-19T05:06:38.491Z,1.40
2023-05-19T05:09:41.898Z,1.80
2023-05-19T05:12:44.622Z,1.53
2023-05-19T05:15:47.357Z,1.08
2023-05-19T05:18:50.834Z,1.52
2023-05-19T05:21:53.585Z,1.15
2023-05-19T05:24:56.217Z,1.60
2023-05-19T05:27:59.159Z,1.30
2023-05-19T05:31:01.680Z,1.52
2023-05-19T05:34:04.965Z,1.48
2023-05-19T05:37:08.259Z,1.08
2023-05-19T05:40:11.800Z,1.00
2023-05-19T05:43:14.667Z,1.10
2023-05-19T05:46:22.738Z,0.80
2023-05-19T05:49:25.582Z,0.60
2023-05-19T05:52:30.417Z,0.75
2023-05-19T05:55:34.574Z,0.75
2023-05-19T05:58:37.938Z,1.00
2023-05-19T06:01:41.521Z,1.02
2023-05-19T06:04:45.180Z,1.10
2023-05-19T06:07:48.201Z,0.93
2023-05-19T06:10:55.921Z,1.13
2023-05-19T06:13:58.469Z,0.93
2023-05-19T06:17:35.527Z,0.90
2023-05-19T06:20:37.778Z,1.20
2023-05-19T06:23:41.186Z,1.17
2023-05-19T06:26:45.402Z,0.80
2023-05-19T06:29:47.720Z,0.93
2023-05-19T06:32:50.147Z,0.93
2023-05-19T06:35:52.619Z,1.58
2023-05-19T06:38:56.348Z,1.20
2023-05-19T06:41:59.052Z,1.10
2023-05-19T06:45:36.480Z,1.23
2023-05-19T06:48:40.374Z,0.85
2023-05-19T06:51:43.781Z,0.70
2023-05-19T06:54:46.272Z,0.98
2023-05-19T06:57:48.671Z,0.98
2023-05-19T07:00:52.241Z,0.77
2023-05-19T07:03:54.640Z,1.10
2023-05-19T07:06:56.946Z,1.05
2023-05-19T07:10:00.024Z,1.50
2023-05-19T07:13:07.162Z,1.10
2023-05-19T07:16:11.391Z,0.90
2023-05-19T07:19:14.617Z,0.98
2023-05-19T07:22:17.304Z,1.15
2023-05-19T07:25:20.171Z,1.10
2023-05-19T07:28:22.976Z,0.93
2023-05-19T07:31:25.286Z,1.00
2023-05-19T07:34:27.586Z,1.05
2023-05-19T07:37:29.998Z,1.48
2023-05-19T07:40:32.581Z,0.93
2023-05-19T07:43:35.037Z,1.00
2023-05-19T07:46:38.034Z,1.07
2023-05-19T07:49:40.578Z,0.73
2023-05-19T07:52:42.960Z,0.80
2023-05-19T07:55:45.267Z,1.20
2023-05-19T07:58:47.650Z,0.80
2023-05-19T08:01:50.013Z,0.90
2023-05-19T08:04:53.232Z,1.10
2023-05-19T08:07:57.544Z,1.08
2023-05-19T08:11:04.453Z,1.50
2023-05-19T08:14:06.835Z,1.08
2023-05-19T08:17:09.233Z,0.90
2023-05-19T08:20:14.856Z,1.10
2023-05-19T08:23:17.637Z,1.17
2023-05-19T08:26:19.942Z,0.80
2023-05-19T08:29:22.488Z,0.90
2023-05-19T08:32:25.002Z,0.80
2023-05-19T08:35:27.392Z,1.10
2023-05-19T08:38:29.692Z,0.93
2023-05-19T08:41:32.479Z,0.75
2023-05-19T08:44:34.963Z,0.95
2023-05-19T08:47:37.376Z,1.10
2023-05-19T08:50:44.313Z,1.20
2023-05-19T08:53:51.774Z,1.08
2023-05-19T08:56:54.376Z,0.90
2023-05-19T08:59:57.001Z,0.90
2023-05-19T09:03:16.998Z,0.80
2023-05-19T09:06:21.437Z,0.85
2023-05-19T09:09:23.861Z,0.85
2023-05-19T09:12:26.247Z,0.90
2023-05-19T09:15:28.715Z,1.27
2023-05-19T09:18:31.908Z,0.60
2023-05-19T09:21:34.272Z,1.00
2023-05-19T09:24:37.940Z,0.80
2023-05-19T09:27:40.252Z,0.98
2023-05-19T09:30:42.524Z,1.00
2023-05-19T09:33:46.020Z,0.80
2023-05-19T09:36:53.364Z,0.80
2023-05-19T09:39:56.058Z,0.73
2023-05-19T09:42:58.355Z,1.00
2023-05-19T09:46:04.835Z,0.98
2023-05-19T09:49:10.449Z,0.80
2023-05-19T09:52:16.452Z,0.85
2023-05-19T09:55:20.182Z,0.80
2023-05-19T09:58:22.658Z,1.10
2023-05-19T10:01:26.035Z,1.00
2023-05-19T10:04:29.723Z,0.87
2023-05-19T10:07:32.909Z,1.00
2023-05-19T10:10:35.299Z,0.88
2023-05-19T10:13:39.323Z,0.80
2023-05-19T10:16:41.950Z,1.13
2023-05-19T10:19:45.435Z,0.77
2023-05-19T10:22:48.863Z,0.90
2023-05-19T10:25:54.920Z,1.17
2023-05-19T10:28:58.350Z,1.00
2023-05-19T10:32:06.926Z,1.10
2023-05-19T10:35:09.428Z,1.10
2023-05-19T10:38:14.755Z,1.08
2023-05-19T10:41:47.043Z,1.08
2023-05-19T10:45:34.790Z,1.00
2023-05-19T10:48:37.515Z,1.20
2023-05-19T10:51:39.922Z,1.20
2023-05-19T10:54:46.314Z,0.90
2023-05-19T10:57:56.847Z,1.10
2023-05-19T11:01:02.162Z,0.95
2023-05-19T11:04:13.966Z,1.05
2023-05-19T11:07:21.891Z,1.07
2023-05-19T11:10:24.941Z,1.08
2023-05-19T11:16:32.665Z,0.98
2023-05-19T11:19:35.747Z,0.95
2023-05-19T11:22:39.956Z,0.80
2023-05-19T11:25:50.968Z,1.08
2023-05-19T11:28:53.738Z,1.02
2023-05-19T11:31:56.400Z,1.45
2023-05-19T11:34:59.082Z,1.10
2023-05-19T11:38:02.048Z,1.03
2023-05-19T11:41:04.586Z,1.00
2023-05-19T11:44:11.459Z,1.10
2023-05-19T11:47:17.315Z,0.93
2023-05-19T11:50:20.682Z,1.10
2023-05-19T11:53:23.332Z,1.10
2023-05-19T11:56:25.734Z,0.85
2023-05-19T11:59:36.194Z,1.05
2023-05-19T12:02:38.786Z,1.10
2023-05-19T12:05:45.722Z,1.08
2023-05-19T12:08:51.529Z,1.00
2023-05-19T12:11:55.322Z,0.80
2023-05-19T12:14:57.737Z,1.30
2023-05-19T12:18:07.604Z,1.15
2023-05-19T12:21:10.225Z,1.08
2023-05-19T12:24:12.824Z,1.03
2023-05-19T12:27:24.187Z,0.93
2023-05-19T12:30:29.094Z,1.00
2023-05-19T12:33:33.667Z,1.15
2023-05-19T12:36:38.385Z,1.08
2023-05-19T12:39:42.969Z,1.10
2023-05-19T12:42:45.933Z,1.17
2023-05-19T12:45:48.869Z,0.95
2023-05-19T12:48:51.796Z,0.93
2023-05-19T12:51:54.389Z,1.00
2023-05-19T12:55:07.438Z,1.13
2023-05-19T12:58:13.569Z,0.93
2023-05-19T13:01:17.716Z,0.98
2023-05-19T13:04:20.245Z,1.10
2023-05-19T13:07:22.555Z,1.08
2023-05-19T13:10:27.778Z,1.03
2023-05-19T13:13:30.100Z,1.15
2023-05-19T13:16:32.467Z,1.17
2023-05-19T13:19:34.854Z,1.27
2023-05-19T13:22:37.158Z,1.30
2023-05-19T13:25:40.344Z,1.20
2023-05-19T13:28:42.689Z,1.10
2023-05-19T13:31:45.092Z,1.30
2023-05-19T13:34:47.462Z,1.05
2023-05-19T13:37:50.141Z,1.13
2023-05-19T13:40:52.494Z,1.00
2023-05-19T13:43:55.365Z,1.15
2023-05-19T13:46:57.826Z,1.10
2023-05-19T13:50:00.308Z,0.90
2023-05-19T13:53:03.678Z,0.90
2023-05-19T13:56:06.238Z,1.00
2023-05-19T13:59:08.767Z,1.10
2023-05-19T14:02:11.364Z,1.42
2023-05-19T14:05:14.803Z,1.20
2023-05-19T14:08:17.415Z,1.13
2023-05-19T14:11:20.229Z,1.07
2023-05-19T14:14:22.923Z,1.10
2023-05-19T14:17:28.064Z,1.20
2023-05-19T14:20:31.772Z,1.25
2023-05-19T14:23:34.389Z,1.20
2023-05-19T14:26:36.740Z,1.20
2023-05-19T14:29:39.542Z,1.08
2023-05-19T14:32:41.846Z,1.25
2023-05-19T14:35:44.122Z,1.25
2023-05-19T14:38:46.548Z,1.40
2023-05-19T14:41:51.131Z,1.30
2023-05-19T14:44:53.497Z,1.13
2023-05-19T14:47:56.029Z,1.20
2023-05-19T14:50:58.347Z,1.23
2023-05-19T14:54:02.168Z,1.13
2023-05-19T14:57:04.617Z,1.50
2023-05-19T15:00:09.364Z,1.48
2023-05-19T15:03:11.903Z,1.02
2023-05-19T15:06:14.338Z,1.15
2023-05-19T15:09:16.605Z,1.25
2023-05-19T15:12:19.151Z,1.10
2023-05-19T15:15:21.500Z,1.02
2023-05-19T15:18:23.834Z,1.10
2023-05-19T15:21:26.108Z,1.15
2023-05-19T15:24:28.443Z,1.08
2023-05-19T15:27:30.824Z,1.00
2023-05-19T15:30:33.371Z,1.35
2023-05-19T15:33:36.238Z,1.20
2023-05-19T15:36:38.615Z,1.27
2023-05-19T15:39:41.104Z,1.27
2023-05-19T15:42:43.431Z,1.30
2023-05-19T15:45:46.167Z,1.20
2023-05-19T15:48:48.481Z,1.08
2023-05-19T15:51:50.769Z,1.10
2023-05-19T15:54:55.285Z,1.00
2023-05-19T15:57:57.634Z,1.02
2023-05-19T16:01:00.127Z,0.88
2023-05-19T16:04:03.913Z,1.10
2023-05-19T16:07:06.449Z,1.20
2023-05-19T16:10:09.344Z,1.48
2023-05-19T16:13:11.640Z,1.15
2023-05-19T16:16:13.904Z,1.30
2023-05-19T16:19:16.211Z,1.30
2023-05-19T16:22:18.501Z,1.43
2023-05-19T16:25:20.883Z,1.20
2023-05-19T16:28:24.864Z,0.90
2023-05-19T16:31:27.527Z,1.27
2023-05-19T16:34:30.638Z,1.40
2023-05-19T16:37:33.076Z,1.33
2023-05-19T16:40:35.645Z,1.30
2023-05-19T16:43:38.230Z,1.00
2023-05-19T16:46:40.955Z,1.23
2023-05-19T16:49:44.140Z,1.10
2023-05-19T16:52:46.547Z,1.07
2023-05-19T16:55:48.810Z,1.38
2023-05-19T16:58:51.104Z,0.90
2023-05-19T17:01:53.722Z,1.17
2023-05-19T17:04:56.040Z,1.60
2023-05-19T17:07:58.378Z,1.00
2023-05-19T17:11:00.692Z,1.20
2023-05-19T17:14:07.643Z,1.00
2023-05-19T17:17:10.142Z,1.05
2023-05-19T17:20:13.461Z,1.30
2023-05-19T17:23:16.068Z,1.00
2023-05-19T17:26:18.818Z,1.52
2023-05-19T17:29:21.219Z,1.65
2023-05-19T17:32:28.320Z,1.27
2023-05-19T17:35:30.735Z,1.10
2023-05-19T17:38:33.303Z,1.33
2023-05-19T17:41:35.798Z,1.15
2023-05-19T17:44:38.293Z,1.23
2023-05-19T17:47:40.630Z,1.50
2023-05-19T17:50:42.981Z,1.40
2023-05-19T17:53:45.574Z,3.27
2023-05-19T17:56:49.792Z,3.10
2023-05-19T17:59:52.466Z,1.83
2023-05-19T18:02:57.064Z,2.10
2023-05-19T18:05:59.508Z,2.10
2023-05-19T18:09:06.092Z,1.80
2023-05-19T18:12:08.374Z,1.60
2023-05-19T18:15:11.533Z,1.17
2023-05-19T18:18:13.972Z,1.30
2023-05-19T18:21:18.100Z,2.30
2023-05-19T18:24:20.580Z,1.63
2023-05-19T18:27:22.868Z,1.83
2023-05-19T18:30:25.227Z,1.77
2023-05-19T18:33:28.704Z,1.73
2023-05-19T18:36:33.056Z,1.77
2023-05-19T18:39:35.524Z,3.03
2023-05-19T18:42:37.883Z,10.77
2023-05-19T18:45:40.229Z,7.03
2023-05-19T18:48:42.579Z,6.70
2023-05-19T18:51:44.916Z,8.15
2023-05-19T18:54:47.692Z,2.40
2023-05-19T18:57:49.948Z,1.70
2023-05-19T19:00:55.673Z,5.95
2023-05-19T19:03:57.992Z,7.32
2023-05-19T19:07:00.281Z,3.45
2023-05-19T19:10:02.568Z,2.90
2023-05-19T19:13:07.695Z,7.10
2023-05-19T19:16:10.033Z,11.27
2023-05-19T19:19:12.487Z,6.35
2023-05-19T19:22:14.851Z,4.82
2023-05-19T19:25:17.216Z,7.53
2023-05-19T19:28:19.599Z,5.88
2023-05-19T19:31:22.634Z,3.83
2023-05-19T19:34:25.118Z,5.75
2023-05-19T19:37:27.435Z,4.70
2023-05-19T19:40:29.887Z,3.43
2023-05-19T19:43:32.212Z,3.10
2023-05-19T19:46:34.635Z,3.78
2023-05-19T19:49:36.942Z,2.35
2023-05-19T19:52:39.929Z,2.42
2023-05-19T19:55:43.111Z,2.27
2023-05-19T19:58:45.435Z,1.65
2023-05-19T20:01:47.719Z,1.58
2023-05-19T20:04:49.999Z,2.22
2023-05-19T20:07:52.281Z,2.10
2023-05-19T20:10:55.240Z,1.67
2023-05-19T20:13:57.546Z,2.13
2023-05-19T20:16:59.870Z,2.25
2023-05-19T20:20:08.066Z,2.10
2023-05-19T20:23:10.500Z,1.50
2023-05-19T20:26:13.637Z,1.80
2023-05-19T20:29:16.916Z,1.65
2023-05-19T20:32:19.327Z,2.03
2023-05-19T20:35:22.492Z,2.55
2023-05-19T20:38:24.769Z,1.67
2023-05-19T20:41:27.513Z,1.67
2023-05-19T20:44:29.802Z,1.98
2023-05-19T20:47:32.099Z,2.08
2023-05-19T20:50:34.623Z,2.72
2023-05-19T20:53:37.184Z,2.83
2023-05-19T20:56:39.483Z,5.93
2023-05-19T20:59:41.911Z,18.98
2023-05-19T21:02:44.442Z,10.18
2023-05-19T21:05:46.760Z,5.97
2023-05-19T21:08:49.002Z,4.10
2023-05-19T21:11:53.703Z,3.03
2023-05-19T21:14:55.951Z,1.70
2023-05-19T21:17:58.393Z,2.38
2023-05-19T21:21:04.223Z,2.40
2023-05-19T21:24:06.624Z,2.25
2023-05-19T21:27:08.936Z,1.77
2023-05-19T21:30:12.039Z,2.10
2023-05-19T21:33:14.396Z,1.50
2023-05-19T21:36:16.955Z,2.15
2023-05-19T21:39:19.247Z,2.03
2023-05-19T21:42:21.571Z,2.50
2023-05-19T21:45:23.839Z,3.53
2023-05-19T21:48:26.227Z,3.40
2023-05-19T21:51:29.229Z,2.80
2023-05-19T21:54:31.525Z,2.33
2023-05-19T21:57:33.788Z,2.47
2023-05-19T22:00:36.877Z,2.45
2023-05-19T22:03:39.462Z,2.25
2023-05-19T22:06:41.867Z,1.95
2023-05-19T22:09:44.160Z,1.80
2023-05-19T22:12:46.510Z,1.80
2023-05-19T22:15:48.853Z,1.95
2023-05-19T22:18:51.210Z,1.40
2023-05-19T22:22:01.883Z,1.83
2023-05-19T22:25:08.557Z,1.83
2023-05-19T22:28:10.817Z,2.20
2023-05-19T22:31:13.136Z,2.20
2023-05-19T22:34:15.669Z,1.77
2023-05-19T22:37:18.015Z,1.90
2023-05-19T22:40:20.478Z,1.80
2023-05-19T22:43:22.776Z,1.93
2023-05-19T22:46:25.101Z,1.50
2023-05-19T22:49:29.497Z,1.70
2023-05-19T22:52:31.804Z,1.85
2023-05-19T22:55:34.334Z,1.70
2023-05-19T22:58:42.982Z,2.20
2023-05-19T23:01:46.822Z,1.92
2023-05-19T23:04:49.296Z,1.60
2023-05-19T23:07:51.624Z,1.52
2023-05-19T23:10:53.979Z,1.98
2023-05-19T23:13:56.822Z,1.83
2023-05-19T23:16:59.376Z,1.80
2023-05-19T23:20:01.995Z,1.83
2023-05-19T23:23:07.337Z,1.95
2023-05-19T23:26:09.866Z,1.58
2023-05-19T23:29:13.219Z,1.70
2023-05-19T23:32:15.883Z,1.30
2023-05-19T23:35:18.584Z,1.60
2023-05-19T23:38:21.075Z,1.60
2023-05-19T23:41:23.377Z,1.85
2023-05-19T23:44:27.121Z,1.83
2023-05-19T23:47:29.402Z,1.25
2023-05-19T23:50:31.841Z,1.67
2023-05-19T23:53:34.162Z,2.08
2023-05-19T23:56:36.481Z,1.60
2023-05-19T23:59:38.788Z,1.10
